Time;durP1;ratioP1;P1;durP2;ratioP2;P2;SDS_P1;SDS_P2;PMS_P1;PMS_P2;Temp;Humidity;BMP_temperature;BMP_pressure;BME280_temperature;BME280_humidity;BME280_pressure;Samples;Min_cycle;Max_cycle;Signal;HPM_P1;HPM_P2
2023/09/09 00:02:02;;;;;;;14.02;8.02;;;21.40;99.90;;;;;;5050816;28;20664;-76
2023/09/09 00:04:27;;;;;;;17.80;8.18;;;21.50;99.90;;;;;;5031302;28;20174;-76
2023/09/09 00:06:53;;;;;;;11.00;7.85;;;21.60;99.90;;;;;;5030790;28;20669;-77
2023/09/09 00:09:19;;;;;;;21.08;8.60;;;21.60;99.90;;;;;;5031021;28;20172;-77
2023/09/09 00:11:44;;;;;;;13.02;8.23;;;21.60;99.90;;;;;;5030748;28;20177;-77
2023/09/09 00:14:10;;;;;;;16.52;8.10;;;21.60;99.90;;;;;;5030772;28;20193;-77
2023/09/09 00:16:36;;;;;;;23.67;8.13;;;21.60;99.90;;;;;;5030732;28;20166;-76
2023/09/09 00:19:02;;;;;;;13.45;8.55;;;21.50;99.90;;;;;;5030601;28;20188;-76
2023/09/09 00:21:29;;;;;;;16.02;8.43;;;21.50;99.90;;;;;;5030635;28;20176;-75
2023/09/09 00:23:55;;;;;;;17.70;9.75;;;21.60;99.90;;;;;;5030932;28;20186;-75
2023/09/09 00:26:20;;;;;;;14.13;8.38;;;21.50;99.90;;;;;;5030504;28;20565;-75
2023/09/09 00:28:46;;;;;;;14.75;9.05;;;;;;;;;;5030368;28;20530;-73
2023/09/09 00:31:12;;;;;;;13.43;8.18;;;21.60;99.90;;;;;;5030669;28;20181;-74
2023/09/09 00:33:37;;;;;;;17.58;7.70;;;21.50;99.90;;;;;;5030592;28;20253;-75
2023/09/09 00:36:03;;;;;;;14.00;8.35;;;21.60;99.90;;;;;;5029026;28;20178;-75
2023/09/09 00:38:29;;;;;;;15.25;8.13;;;21.50;99.90;;;;;;5030499;28;20795;-75
2023/09/09 00:41:16;;;;;;;12.20;7.68;;;21.50;99.90;;;;;;5030319;28;20540;-76
2023/09/09 00:43:41;;;;;;;12.02;7.63;;;21.60;99.90;;;;;;5030307;28;20707;-75
2023/09/09 00:46:08;;;;;;;16.83;7.72;;;21.60;99.90;;;;;;5030421;28;20209;-75
2023/09/09 00:48:35;;;;;;;17.63;8.30;;;21.60;99.90;;;;;;5030329;28;20185;-75
2023/09/09 00:51:01;;;;;;;16.08;7.72;;;21.60;99.90;;;;;;5030585;28;20182;-76
2023/09/09 00:53:26;;;;;;;17.48;8.32;;;21.60;99.90;;;;;;5030530;28;20177;-75
2023/09/09 00:55:53;;;;;;;17.13;8.55;;;21.50;99.90;;;;;;5033062;28;20174;-74
2023/09/09 00:58:19;;;;;;;14.90;8.85;;;21.40;99.90;;;;;;5033911;28;20253;-75
2023/09/09 01:00:44;;;;;;;18.15;9.18;;;21.40;99.90;;;;;;5045611;28;20297;-75
2023/09/09 01:03:10;;;;;;;14.77;9.57;;;21.30;99.90;;;;;;5044958;28;20169;-75
2023/09/09 01:05:36;;;;;;;17.63;8.93;;;21.20;99.90;;;;;;5033987;28;20706;-75
2023/09/09 01:08:02;;;;;;;19.88;9.38;;;21.20;99.90;;;;;;5032237;28;20170;-75
2023/09/09 01:10:28;;;;;;;20.08;9.57;;;21.20;99.90;;;;;;5033923;28;20537;-75
2023/09/09 01:12:53;;;;;;;15.75;9.48;;;21.20;99.90;;;;;;5032529;28;20182;-75
2023/09/09 01:15:19;;;;;;;17.10;9.27;;;21.10;99.90;;;;;;5033907;28;20174;-75
2023/09/09 01:17:45;;;;;;;14.90;9.32;;;21.00;99.90;;;;;;5033690;28;20498;-74
2023/09/09 01:20:13;;;;;;;19.35;10.20;;;21.00;99.90;;;;;;5033725;28;20637;-75
2023/09/09 01:22:41;;;;;;;15.07;10.02;;;20.90;99.90;;;;;;5033773;28;20223;-75
2023/09/09 01:25:07;;;;;;;19.75;10.48;;;20.90;99.90;;;;;;5033541;28;20242;-76
2023/09/09 01:27:33;;;;;;;19.13;10.80;;;20.90;99.90;;;;;;5033554;28;20176;-75
2023/09/09 01:29:59;;;;;;;15.80;10.75;;;20.80;99.90;;;;;;5033464;28;20177;-75
2023/09/09 01:32:25;;;;;;;15.85;10.32;;;20.90;99.90;;;;;;5033377;28;20328;-74
2023/09/09 01:34:51;;;;;;;15.55;9.82;;;;;;;;;;5033682;28;20197;-74
2023/09/09 01:37:18;;;;;;;15.15;9.13;;;20.90;99.90;;;;;;5033286;28;20174;-74
2023/09/09 01:39:44;;;;;;;16.65;9.30;;;20.80;99.90;;;;;;5033200;28;20174;-74
2023/09/09 01:42:10;;;;;;;16.98;10.75;;;20.80;99.90;;;;;;5033485;28;20305;-74
2023/09/09 01:44:36;;;;;;;22.95;10.98;;;20.80;99.90;;;;;;5032995;28;20260;-74
2023/09/09 01:47:01;;;;;;;17.25;10.25;;;20.70;99.90;;;;;;5032970;28;20205;-74
2023/09/09 01:49:27;;;;;;;17.90;8.93;;;20.60;99.90;;;;;;5045305;28;20180;-74
2023/09/09 01:51:52;;;;;;;17.52;9.63;;;20.70;99.90;;;;;;5052890;28;20792;-73
2023/09/09 01:54:18;;;;;;;18.48;9.52;;;20.60;99.90;;;;;;5053022;28;20178;-74
2023/09/09 01:56:44;;;;;;;16.15;9.15;;;;;;;;;;5052926;28;20169;-74
2023/09/09 01:59:10;;;;;;;14.05;8.95;;;20.60;99.90;;;;;;5052714;28;20264;-74
2023/09/09 02:01:35;;;;;;;19.85;9.20;;;20.60;99.90;;;;;;5052232;28;20263;-74
2023/09/09 02:04:01;;;;;;;16.92;8.90;;;20.70;99.90;;;;;;5037027;28;20169;-75
2023/09/09 02:06:28;;;;;;;16.30;8.50;;;20.50;99.90;;;;;;5032205;28;20201;-73
2023/09/09 02:08:53;;;;;;;13.38;8.95;;;20.50;99.90;;;;;;5032727;28;20177;-75
2023/09/09 02:11:19;;;;;;;15.75;8.80;;;20.50;99.90;;;;;;5032797;28;20174;-75
2023/09/09 02:13:45;;;;;;;21.27;9.90;;;20.40;99.90;;;;;;5032765;28;20185;-74
2023/09/09 02:16:10;;;;;;;14.70;8.48;;;20.40;99.90;;;;;;5032596;28;20705;-74
2023/09/09 02:18:37;;;;;;;21.70;9.55;;;20.40;99.90;;;;;;5032508;28;20180;-74
2023/09/09 02:21:04;;;;;;;17.98;9.55;;;20.30;99.90;;;;;;5032551;28;20197;-74
2023/09/09 02:23:29;;;;;;;19.33;9.23;;;20.30;99.90;;;;;;5032619;28;20261;-74
2023/09/09 02:25:55;;;;;;;16.52;9.90;;;20.30;99.90;;;;;;5031336;28;20758;-74
2023/09/09 02:28:21;;;;;;;17.98;10.07;;;20.30;99.90;;;;;;5032331;28;20170;-75
2023/09/09 02:30:46;;;;;;;18.15;9.25;;;20.40;99.90;;;;;;5032358;28;20533;-74
2023/09/09 02:33:13;;;;;;;16.63;9.18;;;20.30;99.90;;;;;;5032289;28;20174;-74
2023/09/09 02:35:42;;;;;;;17.50;8.80;;;20.30;99.90;;;;;;5032212;28;20178;-74
2023/09/09 02:38:08;;;;;;;20.05;9.05;;;20.50;99.90;;;;;;5037957;28;20162;-74
2023/09/09 02:40:33;;;;;;;18.88;8.90;;;20.30;99.90;;;;;;5070024;28;20659;-75
2023/09/09 02:42:59;;;;;;;15.13;9.50;;;20.30;99.90;;;;;;5071405;28;20300;-74
2023/09/09 02:45:25;;;;;;;15.40;9.70;;;20.10;99.90;;;;;;5071259;28;20338;-75
2023/09/09 02:47:50;;;;;;;18.27;10.98;;;20.10;99.90;;;;;;5072174;28;20184;-74
2023/09/09 02:50:16;;;;;;;25.58;10.45;;;;;;;;;;5071569;28;20168;-74
2023/09/09 02:52:42;;;;;;;18.40;11.30;;;20.20;99.90;;;;;;5071805;28;20176;-74
2023/09/09 02:55:09;;;;;;;22.50;11.35;;;20.20;99.90;;;;;;5051078;28;20225;-74
2023/09/09 02:57:35;;;;;;;16.70;9.82;;;;;;;;;;5051547;28;20173;-73
2023/09/09 03:00:00;;;;;;;15.93;10.80;;;19.80;99.90;;;;;;5051589;28;20180;-74
2023/09/09 03:02:26;;;;;;;18.35;9.80;;;20.30;99.90;;;;;;5064885;28;20809;-74
2023/09/09 03:04:51;;;;;;;18.15;9.40;;;20.30;99.90;;;;;;5051518;28;20180;-73
2023/09/09 03:07:17;;;;;;;14.55;9.88;;;;;;;;;;5051460;28;20208;-74
2023/09/09 03:09:45;;;;;;;22.05;9.80;;;20.30;99.90;;;;;;5063056;28;20179;-74
2023/09/09 03:12:11;;;;;;;19.10;9.48;;;20.40;99.90;;;;;;5071367;28;20165;-74
2023/09/09 03:14:36;;;;;;;19.65;9.25;;;20.40;99.90;;;;;;5071079;28;20193;-75
2023/09/09 03:17:02;;;;;;;20.52;10.05;;;20.40;99.90;;;;;;5070898;28;20593;-75
2023/09/09 03:19:28;;;;;;;17.15;11.52;;;20.30;99.90;;;;;;5071118;28;20176;-74
2023/09/09 03:21:54;;;;;;;16.42;10.13;;;20.20;99.90;;;;;;5071056;28;20551;-74
2023/09/09 03:24:19;;;;;;;15.05;9.43;;;20.20;99.90;;;;;;5067572;28;20169;-75
2023/09/09 03:26:45;;;;;;;19.20;9.63;;;20.10;99.90;;;;;;5051182;28;20208;-73
2023/09/09 03:29:10;;;;;;;19.95;10.27;;;20.10;99.90;;;;;;5054983;28;20218;-74
2023/09/09 03:31:36;;;;;;;18.23;10.70;;;20.00;99.90;;;;;;5068959;28;20658;-74
2023/09/09 03:34:03;;;;;;;19.02;10.65;;;20.10;99.90;;;;;;5071118;28;20271;-74
2023/09/09 03:36:29;;;;;;;13.18;9.85;;;20.10;99.90;;;;;;5066895;28;20178;-74
2023/09/09 03:38:54;;;;;;;17.75;10.45;;;20.00;99.90;;;;;;5052378;28;20214;-74
2023/09/09 03:41:20;;;;;;;15.60;9.00;;;20.00;99.90;;;;;;5070989;28;20531;-73
2023/09/09 03:43:46;;;;;;;16.88;9.77;;;20.00;99.90;;;;;;5064239;28;20713;-74
2023/09/09 03:46:11;;;;;;;16.88;9.40;;;20.10;99.90;;;;;;5055774;28;20989;-74
2023/09/09 03:48:38;;;;;;;18.52;10.63;;;20.10;99.90;;;;;;5054089;28;20190;-74
2023/09/09 03:51:03;;;;;;;17.77;10.70;;;20.00;99.90;;;;;;5063141;28;20169;-73
2023/09/09 03:53:29;;;;;;;14.55;10.20;;;20.00;99.90;;;;;;5050510;28;20544;-73
2023/09/09 03:55:55;;;;;;;19.13;10.38;;;19.90;99.90;;;;;;5056890;28;20200;-73
2023/09/09 03:58:21;;;;;;;19.88;10.40;;;20.00;99.90;;;;;;5068560;28;20196;-73
2023/09/09 04:00:47;;;;;;;17.73;10.63;;;20.00;99.90;;;;;;5060671;28;20169;-74
2023/09/09 04:03:13;;;;;;;21.23;9.20;;;20.00;99.90;;;;;;5050897;28;20674;-74
2023/09/09 04:05:40;;;;;;;14.30;8.40;;;20.00;99.90;;;;;;5050538;28;20196;-74
2023/09/09 04:08:08;;;;;;;16.70;9.32;;;20.00;99.90;;;;;;5049274;28;20185;-74
2023/09/09 04:10:35;;;;;;;16.00;8.73;;;17.80;99.90;;;;;;5063038;28;20168;-73
2023/09/09 04:13:01;;;;;;;22.35;9.27;;;19.90;99.90;;;;;;5050719;28;20207;-74
2023/09/09 04:15:26;;;;;;;16.52;9.48;;;19.90;99.90;;;;;;5050715;28;20260;-74
2023/09/09 04:17:52;;;;;;;15.48;9.85;;;19.90;99.90;;;;;;5050942;28;20183;-74
2023/09/09 04:20:18;;;;;;;17.52;8.95;;;19.80;99.90;;;;;;5049435;28;20640;-74
2023/09/09 04:22:43;;;;;;;15.25;9.02;;;18.60;99.90;;;;;;5050812;28;20169;-73
2023/09/09 04:25:09;;;;;;;22.67;9.60;;;19.80;99.90;;;;;;5050317;28;20177;-73
2023/09/09 04:27:35;;;;;;;18.95;8.93;;;19.80;99.90;;;;;;5050356;28;20267;-74
2023/09/09 04:30:00;;;;;;;17.95;9.75;;;19.80;99.90;;;;;;5052224;28;20173;-74
2023/09/09 04:32:26;;;;;;;14.50;8.55;;;19.80;99.90;;;;;;5054637;28;20202;-75
2023/09/09 04:34:52;;;;;;;22.08;8.45;;;19.80;99.90;;;;;;5054660;28;20170;-74
2023/09/09 04:37:18;;;;;;;15.00;8.70;;;19.70;99.90;;;;;;5054454;28;20169;-74
2023/09/09 04:39:44;;;;;;;15.95;8.65;;;19.70;99.90;;;;;;5054621;28;20632;-73
2023/09/09 04:42:09;;;;;;;17.92;8.82;;;19.70;99.90;;;;;;5054583;28;20174;-74
2023/09/09 04:44:35;;;;;;;11.18;8.13;;;19.70;99.90;;;;;;5054296;28;20233;-73
2023/09/09 04:47:02;;;;;;;19.23;8.65;;;19.80;99.90;;;;;;5054423;28;20205;-73
2023/09/09 04:49:27;;;;;;;14.98;8.70;;;19.80;99.90;;;;;;5054324;28;20539;-73
2023/09/09 04:51:54;;;;;;;16.88;9.30;;;19.80;99.90;;;;;;5054396;28;20180;-72
2023/09/09 04:54:20;;;;;;;17.90;8.85;;;;;;;;;;5054159;28;20174;-73
2023/09/09 04:56:47;;;;;;;18.42;9.52;;;19.40;99.90;;;;;;5052939;28;20218;-73
2023/09/09 04:59:12;;;;;;;17.50;9.32;;;19.60;99.90;;;;;;5054291;28;20253;-73
2023/09/09 05:01:38;;;;;;;15.23;10.00;;;19.70;99.90;;;;;;5054024;28;20770;-73
2023/09/09 05:04:04;;;;;;;23.23;10.15;;;19.60;99.90;;;;;;5053931;28;20230;-73
2023/09/09 05:06:30;;;;;;;19.00;9.82;;;19.60;99.90;;;;;;5053988;28;20295;-73
2023/09/09 05:08:55;;;;;;;16.17;10.20;;;19.50;99.90;;;;;;5053892;28;20308;-73
2023/09/09 05:11:21;;;;;;;19.38;9.65;;;19.50;99.90;;;;;;5053928;28;20580;-73
2023/09/09 05:13:47;;;;;;;16.17;10.13;;;19.50;99.90;;;;;;5053943;28;20172;-73
2023/09/09 05:16:12;;;;;;;20.25;10.55;;;19.40;99.90;;;;;;5058108;28;20169;-74
2023/09/09 05:18:38;;;;;;;16.45;9.70;;;;;;;;;;5053527;28;20574;-74
2023/09/09 05:21:04;;;;;;;16.58;9.57;;;19.40;99.90;;;;;;5064944;28;20268;-74
2023/09/09 05:23:29;;;;;;;22.15;9.82;;;19.30;99.90;;;;;;5062285;28;20667;-73
2023/09/09 05:25:55;;;;;;;17.33;9.68;;;19.20;99.90;;;;;;5064110;28;20231;-74
2023/09/09 05:28:20;;;;;;;18.02;9.85;;;19.20;99.90;;;;;;5053501;28;20675;-74
2023/09/09 05:30:46;;;;;;;18.83;9.75;;;19.30;99.90;;;;;;5053513;28;20324;-74
2023/09/09 05:33:11;;;;;;;15.82;9.15;;;19.20;99.90;;;;;;5053522;28;20256;-74
2023/09/09 05:35:37;;;;;;;20.55;10.10;;;19.30;99.90;;;;;;5053655;28;20169;-74
2023/09/09 05:38:03;;;;;;;22.02;10.05;;;19.30;99.90;;;;;;5053399;28;20602;-74
2023/09/09 05:40:28;;;;;;;17.38;9.90;;;19.20;99.90;;;;;;5053066;28;20798;-75
2023/09/09 05:42:54;;;;;;;16.15;9.93;;;19.20;99.90;;;;;;5052388;28;20201;-75
2023/09/09 05:45:19;;;;;;;14.02;8.70;;;19.20;99.90;;;;;;5053095;28;20169;-75
2023/09/09 05:47:45;;;;;;;15.27;8.82;;;19.20;99.90;;;;;;5053261;28;20541;-75
2023/09/09 05:50:12;;;;;;;16.35;9.02;;;19.20;99.90;;;;;;5053112;28;20207;-74
2023/09/09 05:52:37;;;;;;;17.20;9.13;;;19.20;99.90;;;;;;5051865;28;20177;-73
2023/09/09 05:55:04;;;;;;;17.08;9.57;;;19.20;99.90;;;;;;5040852;28;20627;-74
2023/09/09 05:57:32;;;;;;;14.05;8.77;;;19.20;99.90;;;;;;5050159;28;20177;-74
2023/09/09 05:59:58;;;;;;;14.68;9.63;;;19.20;99.90;;;;;;5047141;28;20185;-74
2023/09/09 06:02:23;;;;;;;21.48;10.45;;;19.20;99.90;;;;;;5033055;28;20543;-74
2023/09/09 06:04:49;;;;;;;23.90;11.80;;;19.20;99.90;;;;;;5032886;28;20174;-73
2023/09/09 06:07:15;;;;;;;18.73;11.25;;;19.20;99.90;;;;;;5032823;28;20214;-73
2023/09/09 06:09:41;;;;;;;17.23;11.88;;;19.20;99.90;;;;;;5032862;28;20506;-73
2023/09/09 06:12:06;;;;;;;17.30;11.98;;;19.20;99.90;;;;;;5038112;28;20205;-74
2023/09/09 06:14:32;;;;;;;21.55;12.38;;;19.20;99.90;;;;;;5052901;28;20678;-74
2023/09/09 06:16:58;;;;;;;18.33;12.98;;;19.20;99.90;;;;;;5052593;28;20204;-74
2023/09/09 06:19:23;;;;;;;23.48;12.82;;;19.30;99.90;;;;;;5051241;28;20223;-74
2023/09/09 06:21:49;;;;;;;24.38;13.07;;;19.00;99.90;;;;;;5052503;28;20173;-75
2023/09/09 06:24:15;;;;;;;55.63;12.40;;;;;;;;;;4915540;22;20240;-73
2023/09/09 06:26:43;;;;;;;118.95;14.05;;;;;;;;;;5031079;28;20217;-73
2023/09/09 06:29:08;;;;;;;24.65;13.80;;;19.00;99.90;;;;;;5014322;28;20170;-73
2023/09/09 06:31:34;;;;;;;55.90;12.52;;;17.30;99.90;;;;;;5032193;28;20655;-75
2023/09/09 06:33:59;;;;;;;27.98;12.73;;;19.10;99.90;;;;;;5031961;28;20202;-74
2023/09/09 06:36:25;;;;;;;22.80;12.65;;;18.90;99.90;;;;;;5043746;28;20169;-74
2023/09/09 06:38:50;;;;;;;19.63;12.98;;;19.10;99.90;;;;;;5014119;28;20181;-74
2023/09/09 06:41:16;;;;;;;17.35;12.35;;;19.10;99.90;;;;;;5031369;28;20541;-74
2023/09/09 06:43:43;;;;;;;13.10;10.30;;;19.40;99.90;;;;;;5031875;28;20188;-74
2023/09/09 06:46:09;;;;;;;17.40;10.73;;;19.10;99.90;;;;;;5031360;28;20252;-74
2023/09/09 06:48:34;;;;;;;18.70;10.93;;;19.10;99.90;;;;;;5032049;28;20174;-74
2023/09/09 06:51:00;;;;;;;15.57;11.23;;;19.30;99.90;;;;;;5031420;28;20256;-75
2023/09/09 06:53:26;;;;;;;18.90;11.30;;;19.20;99.90;;;;;;5031539;28;20169;-74
2023/09/09 06:55:52;;;;;;;18.10;11.90;;;19.20;99.90;;;;;;5030651;28;20174;-74
2023/09/09 06:58:18;;;;;;;17.85;11.95;;;19.30;99.90;;;;;;5031746;28;20189;-74
2023/09/09 07:00:50;;;;;;;16.50;11.23;;;19.40;99.90;;;;;;5031414;28;20747;-74
2023/09/09 07:03:16;;;;;;;13.75;10.65;;;19.50;99.90;;;;;;5031959;28;20256;-74
2023/09/09 07:05:42;;;;;;;14.13;10.70;;;19.60;99.90;;;;;;5028982;28;20340;-74
2023/09/09 07:08:08;;;;;;;15.75;11.25;;;19.60;99.90;;;;;;5031746;28;20547;-74
2023/09/09 07:10:33;;;;;;;22.38;12.32;;;19.70;99.90;;;;;;5019320;28;20175;-74
2023/09/09 07:12:59;;;;;;;16.30;12.05;;;;;;;;;;5023771;28;20630;-74
2023/09/09 07:15:25;;;;;;;16.92;11.82;;;19.60;99.90;;;;;;5031816;28;20166;-75
2023/09/09 07:17:50;;;;;;;14.93;11.68;;;19.60;99.90;;;;;;5030736;28;20651;-74
2023/09/09 07:20:16;;;;;;;20.00;11.27;;;19.70;99.90;;;;;;5044813;28;20635;-74
2023/09/09 07:22:42;;;;;;;18.73;11.50;;;19.60;99.90;;;;;;5023818;28;20658;-79
2023/09/09 07:25:08;;;;;;;17.67;11.13;;;19.80;99.90;;;;;;5031213;28;20583;-76
2023/09/09 07:27:34;;;;;;;15.82;10.80;;;19.90;99.90;;;;;;5030826;28;20687;-77
2023/09/09 07:30:00;;;;;;;18.45;11.48;;;20.00;99.90;;;;;;5030357;28;20177;-75
2023/09/09 07:32:25;;;;;;;13.88;10.68;;;20.10;99.90;;;;;;5042216;28;20643;-75
2023/09/09 07:34:51;;;;;;;16.65;11.07;;;20.20;99.90;;;;;;5051108;28;20169;-76
2023/09/09 07:37:17;;;;;;;16.90;10.65;;;20.10;99.90;;;;;;5033878;28;20201;-76
2023/09/09 07:39:51;;;;;;;12.57;9.77;;;20.20;99.90;;;;;;5031212;28;20174;-76
2023/09/09 07:42:17;;;;;;;17.58;9.93;;;20.40;99.90;;;;;;5030676;28;20166;-74
2023/09/09 07:44:44;;;;;;;16.05;9.50;;;20.20;99.90;;;;;;5031131;28;20170;-74
2023/09/09 07:47:09;;;;;;;18.92;9.52;;;20.60;99.90;;;;;;5031014;28;20267;-75
2023/09/09 07:49:35;;;;;;;18.48;10.23;;;20.70;99.90;;;;;;5012364;28;20181;-76
2023/09/09 07:52:02;;;;;;;15.00;10.25;;;21.10;99.90;;;;;;5027800;28;20232;-75
2023/09/09 07:54:29;;;;;;;18.77;10.45;;;20.90;99.90;;;;;;5011651;28;20205;-74
2023/09/09 07:56:55;;;;;;;17.60;10.23;;;21.00;99.90;;;;;;5027644;28;20170;-74
2023/09/09 07:59:20;;;;;;;17.90;10.23;;;21.10;99.90;;;;;;5044293;28;20180;-75
2023/09/09 08:01:47;;;;;;;19.42;10.50;;;;;;;;;;5042346;28;20178;-76
2023/09/09 08:04:13;;;;;;;16.88;10.40;;;21.40;99.90;;;;;;5030243;28;20166;-75
2023/09/09 08:06:39;;;;;;;17.80;9.90;;;21.60;99.90;;;;;;5030686;28;20243;-76
2023/09/09 08:09:05;;;;;;;16.33;10.00;;;;;;;;;;5030958;28;20174;-76
2023/09/09 08:11:31;;;;;;;18.63;10.10;;;21.70;99.90;;;;;;5030856;28;20224;-76
2023/09/09 08:13:57;;;;;;;13.85;8.85;;;21.90;99.90;;;;;;5013049;28;20589;-77
2023/09/09 08:16:23;;;;;;;20.40;9.98;;;22.20;99.90;;;;;;5031531;28;20650;-79
2023/09/09 08:18:48;;;;;;;17.80;9.60;;;23.40;99.90;;;;;;5030808;28;20197;-76
2023/09/09 08:21:14;;;;;;;17.50;9.63;;;24.50;99.90;;;;;;5030794;28;20530;-78
2023/09/09 08:23:40;;;;;;;19.92;10.23;;;25.30;99.90;;;;;;5030639;28;20174;-78
2023/09/09 08:26:05;;;;;;;20.80;10.93;;;25.90;99.90;;;;;;5012254;28;20216;-78
2023/09/09 08:28:31;;;;;;;20.42;11.27;;;26.30;99.90;;;;;;5029964;28;20651;-78
2023/09/09 08:31:00;;;;;;;28.55;11.55;;;26.90;99.90;;;;;;5030637;28;20209;-79
2023/09/09 08:33:26;;;;;;;22.23;11.20;;;27.20;99.90;;;;;;5030673;28;20188;-78
2023/09/09 08:35:57;;;;;;;22.17;11.43;;;27.50;99.90;;;;;;5029532;28;20634;-79
2023/09/09 08:38:22;;;;;;;21.67;10.38;;;27.70;99.90;;;;;;5008966;28;20174;-77
2023/09/09 08:41:13;;;;;;;18.45;10.55;;;28.40;99.90;;;;;;5026174;28;20569;-77
2023/09/09 08:43:47;;;;;;;24.00;11.27;;;28.20;99.90;;;;;;5017950;28;20280;-78
2023/09/09 08:46:16;;;;;;;15.60;9.68;;;28.40;99.90;;;;;;5028495;28;20288;-78
2023/09/09 08:48:43;;;;;;;17.02;9.32;;;28.60;99.90;;;;;;5030068;28;20639;-78
2023/09/09 08:51:14;;;;;;;21.55;9.88;;;28.80;99.90;;;;;;5030919;28;20185;-78
2023/09/09 08:53:43;;;;;;;18.77;9.77;;;28.10;99.90;;;;;;5030438;28;20186;-78
2023/09/09 08:56:12;;;;;;;22.63;10.35;;;27.90;99.90;;;;;;5030602;28;20258;-78
2023/09/09 08:58:41;;;;;;;18.83;9.90;;;27.10;99.90;;;;;;5012583;28;20178;-78
2023/09/09 09:01:07;;;;;;;17.83;9.13;;;27.10;99.90;;;;;;5012924;28;20199;-78
2023/09/09 09:03:34;;;;;;;18.45;9.68;;;26.70;99.90;;;;;;5028555;28;20185;-79
2023/09/09 09:06:06;;;;;;;21.70;9.43;;;26.50;99.90;;;;;;5028466;28;20210;-78
2023/09/09 09:08:32;;;;;;;19.48;8.77;;;26.70;99.90;;;;;;5016204;28;20243;-79
2023/09/09 09:10:58;;;;;;;17.17;9.13;;;26.50;65.70;;;;;;5028865;28;20169;-79
2023/09/09 09:13:25;;;;;;;21.92;9.30;;;26.50;29.80;;;;;;5029024;28;20657;-79
2023/09/09 09:15:50;;;;;;;16.60;8.60;;;26.70;3.40;;;;;;5031308;28;20174;-79
2023/09/09 09:18:16;;;;;;;16.63;8.13;;;26.60;1.00;;;;;;5033932;28;20617;-79
2023/09/09 09:20:42;;;;;;;15.95;8.85;;;26.90;1.00;;;;;;5034028;28;20194;-77
2023/09/09 09:23:12;;;;;;;17.30;8.98;;;26.80;1.00;;;;;;5016074;28;20178;-77
2023/09/09 09:25:45;;;;;;;14.73;9.00;;;26.70;1.00;;;;;;5033494;28;20217;-79
2023/09/09 09:28:15;;;;;;;17.10;8.73;;;26.50;1.00;;;;;;5033443;28;20178;-76
2023/09/09 09:30:41;;;;;;;19.52;8.90;;;26.60;1.00;;;;;;5033611;28;20177;-78
2023/09/09 09:33:07;;;;;;;15.13;9.52;;;26.70;1.00;;;;;;5033499;28;20174;-78
2023/09/09 09:35:36;;;;;;;17.30;9.65;;;27.00;99.90;;;;;;5034235;28;20189;-79
2023/09/09 09:38:07;;;;;;;21.50;9.82;;;26.50;57.10;;;;;;5037141;28;20571;-79
2023/09/09 09:40:34;;;;;;;18.23;9.80;;;27.00;1.00;;;;;;5035311;28;20531;-79
2023/09/09 09:43:00;;;;;;;19.23;9.32;;;28.00;1.00;;;;;;5034590;28;20162;-78
2023/09/09 09:45:29;;;;;;;18.00;9.40;;;29.40;99.90;;;;;;5035738;28;20188;-79
2023/09/09 09:47:57;;;;;;;16.73;9.95;;;29.50;99.90;;;;;;5038580;28;20558;-79
2023/09/09 09:50:30;;;;;;;19.10;9.90;;;29.30;1.00;;;;;;5032591;28;20174;-79
2023/09/09 09:52:58;;;;;;;16.48;9.57;;;29.30;99.90;;;;;;5032985;28;20178;-79
2023/09/09 09:55:24;;;;;;;24.75;10.02;;;29.50;99.90;;;;;;5032523;28;20548;-80
2023/09/09 09:57:54;;;;;;;18.70;10.07;;;30.30;99.90;;;;;;5014432;28;20575;-79
2023/09/09 10:00:20;;;;;;;20.85;9.25;;;30.00;1.00;;;;;;5020093;28;20252;-78
2023/09/09 10:02:48;;;;;;;20.38;9.90;;;30.00;1.00;;;;;;5043732;28;20172;-79
2023/09/09 10:05:14;;;;;;;17.80;9.38;;;29.60;1.00;;;;;;5047579;28;20173;-78
2023/09/09 10:07:48;;;;;;;21.88;8.55;;;29.90;1.00;;;;;;5038017;28;20192;-78
2023/09/09 10:10:18;;;;;;;13.90;8.43;;;30.70;1.00;;;;;;5026047;28;20170;-77
2023/09/09 10:12:53;;;;;;;20.15;9.25;;;30.30;1.00;;;;;;5036638;28;20174;-78
2023/09/09 10:15:20;;;;;;;20.08;8.40;;;30.50;1.00;;;;;;5019481;28;20180;-78
2023/09/09 10:17:48;;;;;;;28.33;8.98;;;30.40;1.00;;;;;;5032562;28;20177;-77
2023/09/09 10:20:15;;;;;;;18.95;8.70;;;31.30;1.00;;;;;;5014418;28;20173;-77
2023/09/09 10:22:41;;;;;;;24.02;8.27;;;31.50;99.90;;;;;;5032597;28;20252;-78
2023/09/09 10:25:10;;;;;;;18.52;8.20;;;31.00;99.90;;;;;;5014644;28;20323;-78
2023/09/09 10:27:38;;;;;;;27.30;8.10;;;31.80;1.00;;;;;;5031478;28;20212;-78
2023/09/09 10:30:04;;;;;;;17.20;7.65;;;32.00;1.00;;;;;;5032202;28;20181;-78
2023/09/09 10:32:34;;;;;;;15.15;6.85;;;32.30;1.00;;;;;;5032633;28;20165;-76
2023/09/09 10:35:02;;;;;;;15.88;6.22;;;32.30;1.00;;;;;;5032505;28;20174;-76
2023/09/09 10:37:31;;;;;;;20.02;7.10;;;33.20;1.00;;;;;;5032239;28;20184;-77
2023/09/09 10:39:57;;;;;;;19.60;7.65;;;32.50;99.90;;;;;;5031762;28;20172;-76
2023/09/09 10:42:23;;;;;;;20.02;6.88;;;32.20;99.90;;;;;;5031458;28;20170;-76
2023/09/09 10:44:48;;;;;;;16.92;6.75;;;33.00;99.90;;;;;;5016276;28;20185;-76
2023/09/09 10:47:15;;;;;;;19.83;7.10;;;32.20;99.90;;;;;;5036388;28;20594;-76
2023/09/09 10:49:41;;;;;;;19.33;6.40;;;32.20;99.90;;;;;;5046446;28;20256;-76
2023/09/09 10:52:07;;;;;;;13.85;5.97;;;33.00;99.90;;;;;;5032146;28;20694;-75
2023/09/09 10:54:33;;;;;;;13.52;5.70;;;33.10;1.00;;;;;;5031432;28;20173;-76
2023/09/09 10:57:02;;;;;;;19.20;6.30;;;33.80;1.00;;;;;;5032313;28;20287;-78
2023/09/09 10:59:30;;;;;;;18.02;5.45;;;33.50;99.90;;;;;;5032971;28;20178;-77
2023/09/09 11:02:14;;;;;;;21.63;5.25;;;32.00;99.90;;;;;;5031935;28;20264;-77
2023/09/09 11:04:41;;;;;;;13.07;5.88;;;32.00;1.00;;;;;;5032225;28;20169;-78
2023/09/09 11:07:09;;;;;;;13.85;4.97;;;32.60;99.90;;;;;;5025693;28;20300;-78
2023/09/09 11:09:35;;;;;;;11.52;4.55;;;33.00;99.90;;;;;;5037114;28;20169;-78
2023/09/09 11:12:14;;;;;;;11.43;4.10;;;33.30;1.00;;;;;;5013955;28;20205;-77
2023/09/09 11:15:00;;;;;;;12.10;5.40;;;33.70;1.00;;;;;;5031781;28;20631;-77
2023/09/09 11:17:29;;;;;;;18.73;5.10;;;34.00;1.00;;;;;;5031858;28;20174;-77
2023/09/09 11:19:55;;;;;;;20.48;9.18;;;34.30;1.00;;;;;;5031275;28;20195;-78
2023/09/09 11:22:22;;;;;;;17.23;10.00;;;34.90;99.90;;;;;;5031815;28;20710;-77
2023/09/09 11:24:48;;;;;;;21.60;11.32;;;35.40;99.90;;;;;;5013662;28;20709;-77
2023/09/09 11:27:15;;;;;;;16.02;10.80;;;34.60;99.90;;;;;;5031136;28;20212;-78
2023/09/09 11:29:50;;;;;;;17.83;11.02;;;35.20;99.90;;;;;;5031107;28;20204;-77
2023/09/09 11:32:26;;;;;;;21.17;12.20;;;34.80;99.90;;;;;;5031373;28;20177;-78
2023/09/09 11:34:53;;;;;;;20.40;12.00;;;35.00;99.90;;;;;;5013781;28;20203;-77
2023/09/09 11:37:19;;;;;;;18.48;11.85;;;35.30;99.90;;;;;;5031372;28;20208;-77
2023/09/09 11:39:45;;;;;;;17.08;11.35;;;34.90;90.20;;;;;;5030007;28;20644;-78
2023/09/09 11:42:11;;;;;;;22.25;11.48;;;35.00;93.10;;;;;;5030686;28;20737;-79
2023/09/09 11:44:41;;;;;;;18.20;11.55;;;34.70;3.30;;;;;;5013446;28;20165;-77
2023/09/09 11:47:07;;;;;;;16.02;11.98;;;34.30;1.00;;;;;;5030975;28;20703;-78
2023/09/09 11:49:33;;;;;;;14.02;11.05;;;34.00;40.20;;;;;;5031291;28;20260;-78
2023/09/09 11:52:00;;;;;;;23.00;10.57;;;34.30;94.20;;;;;;5031155;28;20208;-80
2023/09/09 11:54:26;;;;;;;19.48;10.18;;;34.00;99.90;;;;;;5030920;28;20173;-79
2023/09/09 11:57:06;;;;;;;14.63;9.70;;;33.80;99.90;;;;;;5012529;28;20173;-80
2023/09/09 11:59:47;;;;;;;20.30;9.95;;;34.30;99.90;;;;;;5044132;28;20185;-80
2023/09/09 12:02:24;;;;;;;12.52;8.57;;;34.30;99.90;;;;;;5045721;28;20259;-80
2023/09/09 12:04:58;;;;;;;14.95;8.60;;;34.90;99.90;;;;;;5031279;28;20264;-80
2023/09/09 12:07:29;;;;;;;12.70;8.93;;;35.30;99.90;;;;;;5031018;28;20343;-82
2023/09/09 12:09:56;;;;;;;15.73;9.48;;;35.20;20.60;;;;;;5031091;28;20224;-80
2023/09/09 12:12:22;;;;;;;11.98;9.30;;;34.20;1.00;;;;;;5031024;28;20165;-81
2023/09/09 12:14:49;;;;;;;14.77;9.20;;;34.30;99.40;;;;;;5036264;28;20173;-80
2023/09/09 12:17:15;;;;;;;17.95;8.70;;;34.90;99.90;;;;;;5030836;28;20259;-79
2023/09/09 12:19:41;;;;;;;11.85;8.55;;;35.40;99.90;;;;;;5030028;28;20504;-80
2023/09/09 12:22:07;;;;;;;12.95;7.80;;;35.30;56.30;;;;;;5030668;28;20178;-79
2023/09/09 12:24:40;;;;;;;12.15;8.25;;;36.10;36.50;;;;;;5030666;28;20220;-79
2023/09/09 12:27:06;;;;;;;11.63;7.53;;;36.40;1.00;;;;;;5012475;28;20292;-78
2023/09/09 12:29:31;;;;;;;14.18;8.52;;;36.30;1.00;;;;;;5030822;28;20711;-80
2023/09/09 12:31:58;;;;;;;17.30;8.05;;;36.00;1.00;;;;;;5030719;28;20177;-78
2023/09/09 12:34:25;;;;;;;12.18;8.20;;;36.80;1.00;;;;;;5030827;28;20174;-80
2023/09/09 12:36:57;;;;;;;11.65;7.82;;;36.20;1.00;;;;;;5030249;28;21821;-80